AFL1306 UHWW-UHSS
Flight info
| Callsign | AFL1306 |
|---|---|
| Flight time | 1h 31m |
| Altitude | 37000 |
| Route | DOLMA2P DOLMA B356 LUBOK W209 RUNUK R810 TIMIT B919 KENOM KENOM4 |
| Aircraft | A320/M-SDE3FGHIRWY/LB1 |
Departure
| Time | 2026-04-21 08:45 |
|---|---|
| Airport | Vladivostok International Airport (UHWW) |
Arrival
| Time | 2026-04-21 10:17 |
|---|---|
| Airport | Yuzhno-Sakhalinsk International Airport (UHSS) |
| Time | Latitude | Longitude | Altitude | Speed | Heading |
|---|---|---|---|---|---|
| 2026-04-21 08:23 | 43.39716 | 132.16493 | 70 ft | 0 kts | 151° |
| 2026-04-21 08:33 | 43.39725 | 132.16486 | 61 ft | 4 kts | 152° |
| 2026-04-21 08:33 | 43.39749 | 132.16469 | 67 ft | 4 kts | 151° |
| 2026-04-21 08:33 | 43.39770 | 132.16452 | 63 ft | 3 kts | 142° |
| 2026-04-21 08:33 | 43.39781 | 132.16438 | 62 ft | 2 kts | 121° |
| 2026-04-21 08:34 | 43.39787 | 132.16424 | 61 ft | 2 kts | 99° |
| 2026-04-21 08:34 | 43.39788 | 132.16409 | 65 ft | 2 kts | 82° |
| 2026-04-21 08:34 | 43.39786 | 132.16394 | 65 ft | 2 kts | 70° |
| 2026-04-21 08:34 | 43.39782 | 132.16380 | 63 ft | 2 kts | 62° |
| 2026-04-21 08:35 | 43.39781 | 132.16377 | 61 ft | 0 kts | 61° |
| 2026-04-21 08:39 | 43.39787 | 132.16391 | 61 ft | 2 kts | 61° |
| 2026-04-21 08:39 | 43.39803 | 132.16431 | 67 ft | 9 kts | 61° |
| 2026-04-21 08:39 | 43.39831 | 132.16502 | 68 ft | 8 kts | 61° |
| 2026-04-21 08:39 | 43.39856 | 132.16564 | 63 ft | 7 kts | 61° |
| 2026-04-21 08:40 | 43.39878 | 132.16617 | 65 ft | 6 kts | 61° |
| 2026-04-21 08:40 | 43.39896 | 132.16663 | 68 ft | 5 kts | 61° |
| 2026-04-21 08:40 | 43.39912 | 132.16701 | 63 ft | 4 kts | 61° |
| 2026-04-21 08:40 | 43.39924 | 132.16730 | 68 ft | 3 kts | 61° |
| 2026-04-21 08:41 | 43.39932 | 132.16751 | 67 ft | 2 kts | 61° |
| 2026-04-21 08:41 | 43.39950 | 132.16797 | 67 ft | 8 kts | 61° |
| 2026-04-21 08:41 | 43.39975 | 132.16857 | 61 ft | 7 kts | 61° |
| 2026-04-21 08:41 | 43.39995 | 132.16910 | 63 ft | 6 kts | 61° |
| 2026-04-21 08:42 | 43.40028 | 132.16990 | 68 ft | 13 kts | 61° |
| 2026-04-21 08:42 | 43.40060 | 132.17070 | 65 ft | 7 kts | 60° |
| 2026-04-21 08:42 | 43.40119 | 132.17090 | 66 ft | 9 kts | 338° |
| 2026-04-21 08:42 | 43.40193 | 132.17033 | 63 ft | 15 kts | 332° |
| 2026-04-21 08:43 | 43.40280 | 132.16968 | 62 ft | 12 kts | 332° |
| 2026-04-21 08:43 | 43.40323 | 132.16936 | 62 ft | 4 kts | 331° |
| 2026-04-21 08:43 | 43.40364 | 132.16905 | 66 ft | 10 kts | 331° |
| 2026-04-21 08:43 | 43.40426 | 132.16857 | 62 ft | 9 kts | 321° |
| 2026-04-21 08:44 | 43.40423 | 132.16774 | 60 ft | 10 kts | 240° |
| 2026-04-21 08:44 | 43.40412 | 132.16745 | 62 ft | 0 kts | 241° |
| 2026-04-21 08:44 | 43.40381 | 132.16670 | 62 ft | 41 kts | 241° |
| 2026-04-21 08:45 | 43.40090 | 132.15949 | 67 ft | 128 kts | 241° |
| 2026-04-21 08:45 | 43.39556 | 132.14627 | 229 ft | 176 kts | 243° |
| 2026-04-21 08:45 | 43.38949 | 132.13179 | 1199 ft | 174 kts | 244° |
| 2026-04-21 08:45 | 43.38314 | 132.11714 | 1843 ft | 188 kts | 246° |
| 2026-04-21 08:46 | 43.37614 | 132.10056 | 2230 ft | 209 kts | 248° |
| 2026-04-21 08:46 | 43.36904 | 132.08293 | 3085 ft | 212 kts | 249° |
| 2026-04-21 08:46 | 43.36216 | 132.06515 | 4067 ft | 210 kts | 250° |
| 2026-04-21 08:46 | 43.35544 | 132.04736 | 5064 ft | 209 kts | 250° |
| 2026-04-21 08:47 | 43.34877 | 132.02938 | 5956 ft | 214 kts | 248° |
| 2026-04-21 08:47 | 43.33864 | 132.01284 | 6446 ft | 251 kts | 220° |
| 2026-04-21 08:47 | 43.32081 | 132.00641 | 7195 ft | 284 kts | 186° |
| 2026-04-21 08:47 | 43.30127 | 132.01503 | 8088 ft | 311 kts | 153° |
| 2026-04-21 08:48 | 43.28631 | 132.03733 | 8979 ft | 329 kts | 121° |
| 2026-04-21 08:48 | 43.28046 | 132.06794 | 9806 ft | 339 kts | 89° |
| 2026-04-21 08:48 | 43.28464 | 132.10033 | 10154 ft | 356 kts | 65° |
| 2026-04-21 08:48 | 43.29460 | 132.13252 | 10421 ft | 377 kts | 61° |
| 2026-04-21 08:49 | 43.30568 | 132.16632 | 10737 ft | 396 kts | 60° |
| 2026-04-21 08:49 | 43.31717 | 132.20119 | 11399 ft | 404 kts | 62° |
| 2026-04-21 08:49 | 43.32662 | 132.23751 | 12096 ft | 413 kts | 69° |
| 2026-04-21 08:49 | 43.33397 | 132.27599 | 12815 ft | 420 kts | 73° |
| 2026-04-21 08:50 | 43.33994 | 132.31612 | 13495 ft | 427 kts | 75° |
| 2026-04-21 08:50 | 43.34536 | 132.35651 | 14108 ft | 431 kts | 73° |
| 2026-04-21 08:50 | 43.35451 | 132.39548 | 14735 ft | 427 kts | 58° |
| 2026-04-21 08:50 | 43.36937 | 132.42965 | 15363 ft | 417 kts | 43° |
| 2026-04-21 08:51 | 43.38925 | 132.45775 | 16019 ft | 405 kts | 28° |
| 2026-04-21 08:51 | 43.41221 | 132.47904 | 16712 ft | 392 kts | 17° |
| 2026-04-21 08:51 | 43.43677 | 132.49379 | 17387 ft | 380 kts | 6° |
| 2026-04-21 08:51 | 43.46198 | 132.50348 | 18061 ft | 376 kts | 3° |
| 2026-04-21 08:52 | 43.48735 | 132.51288 | 18639 ft | 379 kts | 3° |
| 2026-04-21 08:52 | 43.51284 | 132.52237 | 19211 ft | 381 kts | 3° |
| 2026-04-21 08:52 | 43.53891 | 132.53209 | 19771 ft | 384 kts | 3° |
| 2026-04-21 08:52 | 43.56475 | 132.54170 | 20308 ft | 386 kts | 3° |
| 2026-04-21 08:53 | 43.59038 | 132.55124 | 20822 ft | 388 kts | 2° |
| 2026-04-21 08:53 | 43.61656 | 132.56102 | 21347 ft | 392 kts | 2° |
| 2026-04-21 08:53 | 43.64298 | 132.57089 | 21840 ft | 395 kts | 2° |
| 2026-04-21 08:53 | 43.66951 | 132.58083 | 22340 ft | 395 kts | 2° |
| 2026-04-21 08:54 | 43.69617 | 132.59083 | 22816 ft | 398 kts | 2° |
| 2026-04-21 08:54 | 43.72299 | 132.60087 | 23266 ft | 400 kts | 2° |
| 2026-04-21 08:54 | 43.74994 | 132.61093 | 23649 ft | 403 kts | 2° |
| 2026-04-21 08:54 | 43.77713 | 132.62126 | 23993 ft | 409 kts | 5° |
| 2026-04-21 08:55 | 43.80405 | 132.63669 | 24332 ft | 430 kts | 15° |
| 2026-04-21 08:55 | 43.82957 | 132.65997 | 24709 ft | 451 kts | 27° |
| 2026-04-21 08:55 | 43.85343 | 132.68901 | 25055 ft | 458 kts | 30° |
| 2026-04-21 08:55 | 43.87727 | 132.71854 | 25421 ft | 461 kts | 30° |
| 2026-04-21 08:56 | 43.90123 | 132.74826 | 25771 ft | 463 kts | 30° |
| 2026-04-21 08:56 | 43.92535 | 132.77814 | 26105 ft | 466 kts | 30° |
| 2026-04-21 08:56 | 43.94962 | 132.80814 | 26431 ft | 468 kts | 30° |
| 2026-04-21 08:56 | 43.97403 | 132.83828 | 26758 ft | 471 kts | 31° |
| 2026-04-21 08:57 | 43.99852 | 132.86857 | 27065 ft | 473 kts | 31° |
| 2026-04-21 08:57 | 44.02310 | 132.89903 | 27355 ft | 476 kts | 31° |
| 2026-04-21 08:57 | 44.04786 | 132.92976 | 27675 ft | 478 kts | 31° |
| 2026-04-21 08:57 | 44.07269 | 132.96063 | 28001 ft | 480 kts | 31° |
| 2026-04-21 08:58 | 44.09763 | 132.99172 | 28380 ft | 481 kts | 31° |
| 2026-04-21 08:58 | 44.12250 | 133.02275 | 28828 ft | 480 kts | 31° |
| 2026-04-21 08:58 | 44.14731 | 133.05377 | 29284 ft | 479 kts | 32° |
| 2026-04-21 08:58 | 44.17208 | 133.08475 | 29720 ft | 479 kts | 32° |
| 2026-04-21 08:59 | 44.19692 | 133.11569 | 30054 ft | 477 kts | 30° |
| 2026-04-21 08:59 | 44.22296 | 133.14355 | 30339 ft | 471 kts | 26° |
| 2026-04-21 08:59 | 44.24947 | 133.17066 | 30617 ft | 473 kts | 27° |
| 2026-04-21 08:59 | 44.27601 | 133.19787 | 30901 ft | 474 kts | 27° |
| 2026-04-21 09:00 | 44.30262 | 133.22528 | 31191 ft | 476 kts | 27° |
| 2026-04-21 09:00 | 44.32926 | 133.25284 | 31496 ft | 477 kts | 28° |
| 2026-04-21 09:00 | 44.35590 | 133.28045 | 31770 ft | 478 kts | 28° |
| 2026-04-21 09:00 | 44.38267 | 133.30820 | 32070 ft | 479 kts | 28° |
| 2026-04-21 09:01 | 44.40950 | 133.33598 | 32366 ft | 480 kts | 28° |
| 2026-04-21 09:01 | 44.43642 | 133.36383 | 32585 ft | 482 kts | 29° |
| 2026-04-21 09:01 | 44.46337 | 133.39179 | 32636 ft | 483 kts | 29° |
| 2026-04-21 09:02 | 44.51729 | 133.44787 | 32629 ft | 483 kts | 29° |
| 2026-04-21 09:02 | 44.57093 | 133.50373 | 32623 ft | 483 kts | 30° |
| 2026-04-21 09:03 | 44.65181 | 133.58842 | 32620 ft | 484 kts | 30° |
| 2026-04-21 09:03 | 44.65711 | 133.59399 | 32624 ft | 484 kts | 30° |
| 2026-04-21 09:04 | 44.71110 | 133.65092 | 32617 ft | 483 kts | 30° |
| 2026-04-21 09:04 | 44.76500 | 133.70736 | 32620 ft | 483 kts | 30° |
| 2026-04-21 09:05 | 44.81883 | 133.76394 | 32616 ft | 483 kts | 30° |
| 2026-04-21 09:05 | 44.87253 | 133.82068 | 32611 ft | 482 kts | 31° |
| 2026-04-21 09:06 | 44.92267 | 133.88447 | 32609 ft | 494 kts | 46° |
| 2026-04-21 09:06 | 44.96118 | 133.96505 | 32605 ft | 499 kts | 53° |
| 2026-04-21 09:07 | 44.99884 | 134.04827 | 32605 ft | 499 kts | 53° |
| 2026-04-21 09:07 | 45.03617 | 134.13104 | 32599 ft | 499 kts | 53° |
| 2026-04-21 09:08 | 45.06715 | 134.19993 | 32601 ft | 500 kts | 53° |
| 2026-04-21 09:08 | 45.11042 | 134.29649 | 32596 ft | 500 kts | 53° |
| 2026-04-21 09:09 | 45.14757 | 134.37971 | 32596 ft | 500 kts | 53° |
| 2026-04-21 09:09 | 45.18481 | 134.46302 | 32596 ft | 499 kts | 53° |
| 2026-04-21 09:10 | 45.22185 | 134.54631 | 32595 ft | 499 kts | 54° |
| 2026-04-21 09:10 | 45.25254 | 134.61544 | 32589 ft | 498 kts | 54° |
| 2026-04-21 09:11 | 45.28939 | 134.69878 | 32589 ft | 497 kts | 54° |
| 2026-04-21 09:11 | 45.32597 | 134.78199 | 32591 ft | 496 kts | 54° |
| 2026-04-21 09:12 | 45.36255 | 134.86529 | 32590 ft | 496 kts | 54° |
| 2026-04-21 09:12 | 45.39898 | 134.94845 | 32588 ft | 495 kts | 54° |
| 2026-04-21 09:13 | 45.43537 | 135.03158 | 32582 ft | 494 kts | 55° |
| 2026-04-21 09:13 | 45.47166 | 135.11478 | 32584 ft | 494 kts | 55° |
| 2026-04-21 09:14 | 45.50779 | 135.19795 | 32577 ft | 493 kts | 55° |
| 2026-04-21 09:14 | 45.54388 | 135.28121 | 32574 ft | 493 kts | 55° |
| 2026-04-21 09:15 | 45.57986 | 135.36456 | 32569 ft | 493 kts | 56° |
| 2026-04-21 09:15 | 45.61572 | 135.44797 | 32566 ft | 493 kts | 56° |
| 2026-04-21 09:16 | 45.65159 | 135.53143 | 32565 ft | 492 kts | 56° |
| 2026-04-21 09:16 | 45.68729 | 135.61497 | 32561 ft | 492 kts | 56° |
| 2026-04-21 09:17 | 45.72289 | 135.69864 | 32559 ft | 492 kts | 56° |
| 2026-04-21 09:17 | 45.75849 | 135.78223 | 32556 ft | 492 kts | 56° |
| 2026-04-21 09:18 | 45.79414 | 135.86604 | 32553 ft | 492 kts | 56° |
| 2026-04-21 09:18 | 45.82970 | 135.94999 | 32550 ft | 492 kts | 57° |
| 2026-04-21 09:19 | 45.86486 | 136.03343 | 32547 ft | 492 kts | 57° |
| 2026-04-21 09:19 | 45.90022 | 136.11767 | 32541 ft | 492 kts | 57° |
| 2026-04-21 09:20 | 45.93554 | 136.20189 | 32535 ft | 492 kts | 57° |
| 2026-04-21 09:20 | 45.97079 | 136.28616 | 32530 ft | 492 kts | 57° |
| 2026-04-21 09:21 | 46.00591 | 136.37057 | 32531 ft | 492 kts | 57° |
| 2026-04-21 09:21 | 46.04097 | 136.45500 | 32520 ft | 491 kts | 57° |
| 2026-04-21 09:22 | 46.07593 | 136.53950 | 32524 ft | 491 kts | 57° |
| 2026-04-21 09:22 | 46.11080 | 136.62408 | 32514 ft | 490 kts | 57° |
| 2026-04-21 09:23 | 46.14557 | 136.70859 | 32507 ft | 490 kts | 58° |
| 2026-04-21 09:23 | 46.18028 | 136.79316 | 32499 ft | 489 kts | 58° |
| 2026-04-21 09:24 | 46.21487 | 136.87773 | 32498 ft | 488 kts | 58° |
| 2026-04-21 09:24 | 46.24927 | 136.96213 | 32493 ft | 487 kts | 58° |
| 2026-04-21 09:25 | 46.28357 | 137.04637 | 32485 ft | 486 kts | 58° |
| 2026-04-21 09:25 | 46.31769 | 137.13063 | 32488 ft | 485 kts | 58° |
| 2026-04-21 09:26 | 46.35145 | 137.21439 | 32476 ft | 485 kts | 59° |
| 2026-04-21 09:26 | 46.37699 | 137.30461 | 32477 ft | 486 kts | 74° |
| 2026-04-21 09:27 | 46.39495 | 137.39905 | 32476 ft | 487 kts | 74° |
| 2026-04-21 09:27 | 46.41299 | 137.49362 | 32462 ft | 487 kts | 74° |
| 2026-04-21 09:28 | 46.43096 | 137.58824 | 32461 ft | 487 kts | 74° |
| 2026-04-21 09:28 | 46.44883 | 137.68309 | 32454 ft | 488 kts | 75° |
| 2026-04-21 09:29 | 46.46659 | 137.77806 | 32454 ft | 488 kts | 75° |
| 2026-04-21 09:29 | 46.48436 | 137.87324 | 32445 ft | 488 kts | 75° |
| 2026-04-21 09:30 | 46.50194 | 137.96842 | 32444 ft | 488 kts | 75° |
| 2026-04-21 09:30 | 46.51946 | 138.06348 | 32443 ft | 486 kts | 75° |
| 2026-04-21 09:31 | 46.53696 | 138.15827 | 32434 ft | 485 kts | 75° |
| 2026-04-21 09:31 | 46.55415 | 138.25300 | 32437 ft | 484 kts | 76° |
| 2026-04-21 09:32 | 46.57102 | 138.34718 | 32439 ft | 484 kts | 76° |
| 2026-04-21 09:32 | 46.58798 | 138.44185 | 32431 ft | 484 kts | 76° |
| 2026-04-21 09:33 | 46.60482 | 138.53653 | 32422 ft | 483 kts | 76° |
| 2026-04-21 09:33 | 46.62164 | 138.63117 | 32424 ft | 483 kts | 77° |
| 2026-04-21 09:34 | 46.63156 | 138.72749 | 32423 ft | 481 kts | 84° |
| 2026-04-21 09:34 | 46.63937 | 138.82414 | 32420 ft | 481 kts | 85° |
| 2026-04-21 09:35 | 46.64707 | 138.92075 | 32426 ft | 480 kts | 85° |
| 2026-04-21 09:35 | 46.65472 | 139.01729 | 32421 ft | 480 kts | 85° |
| 2026-04-21 09:36 | 46.66232 | 139.11384 | 32421 ft | 480 kts | 85° |
| 2026-04-21 09:36 | 46.66984 | 139.21051 | 32420 ft | 480 kts | 85° |
| 2026-04-21 09:37 | 46.67721 | 139.30706 | 32420 ft | 480 kts | 85° |
| 2026-04-21 09:37 | 46.68445 | 139.40376 | 32423 ft | 480 kts | 86° |
| 2026-04-21 09:38 | 46.69175 | 139.50024 | 32419 ft | 479 kts | 86° |
| 2026-04-21 09:38 | 46.69908 | 139.59676 | 32421 ft | 479 kts | 86° |
| 2026-04-21 09:39 | 46.70630 | 139.69337 | 32421 ft | 479 kts | 86° |
| 2026-04-21 09:39 | 46.71342 | 139.78981 | 32415 ft | 479 kts | 86° |
| 2026-04-21 09:40 | 46.72048 | 139.88639 | 32418 ft | 478 kts | 86° |
| 2026-04-21 09:40 | 46.72739 | 139.98259 | 32417 ft | 477 kts | 86° |
| 2026-04-21 09:41 | 46.73432 | 140.07889 | 32426 ft | 477 kts | 86° |
| 2026-04-21 09:41 | 46.74143 | 140.17432 | 32429 ft | 476 kts | 86° |
| 2026-04-21 09:42 | 46.74810 | 140.27091 | 32425 ft | 475 kts | 87° |
| 2026-04-21 09:42 | 46.75428 | 140.36689 | 32429 ft | 475 kts | 88° |
| 2026-04-21 09:43 | 46.76016 | 140.45967 | 32431 ft | 475 kts | 88° |
| 2026-04-21 09:43 | 46.76638 | 140.55556 | 32431 ft | 475 kts | 88° |
| 2026-04-21 09:44 | 46.77251 | 140.65155 | 32192 ft | 476 kts | 88° |
| 2026-04-21 09:44 | 46.77554 | 140.69962 | 31939 ft | 475 kts | 88° |
| 2026-04-21 09:44 | 46.77853 | 140.74766 | 31687 ft | 475 kts | 88° |
| 2026-04-21 09:45 | 46.78151 | 140.79565 | 31437 ft | 475 kts | 88° |
| 2026-04-21 09:45 | 46.78447 | 140.84363 | 31190 ft | 475 kts | 89° |
| 2026-04-21 09:45 | 46.78741 | 140.89171 | 30485 ft | 477 kts | 89° |
| 2026-04-21 09:45 | 46.79033 | 140.94027 | 29225 ft | 483 kts | 89° |
| 2026-04-21 09:46 | 46.79324 | 140.98873 | 27819 ft | 475 kts | 89° |
| 2026-04-21 09:46 | 46.79612 | 141.03608 | 26594 ft | 463 kts | 89° |
| 2026-04-21 09:46 | 46.79891 | 141.08246 | 25321 ft | 453 kts | 89° |
| 2026-04-21 09:46 | 46.80161 | 141.12775 | 24145 ft | 443 kts | 89° |
| 2026-04-21 09:47 | 46.80423 | 141.17182 | 23296 ft | 428 kts | 89° |
| 2026-04-21 09:47 | 46.80674 | 141.21443 | 22412 ft | 417 kts | 89° |
| 2026-04-21 09:47 | 46.80911 | 141.25644 | 21681 ft | 414 kts | 89° |
| 2026-04-21 09:47 | 46.81145 | 141.29818 | 20964 ft | 411 kts | 89° |
| 2026-04-21 09:48 | 46.81381 | 141.33969 | 20282 ft | 411 kts | 89° |
| 2026-04-21 09:48 | 46.81629 | 141.38106 | 19611 ft | 408 kts | 88° |
| 2026-04-21 09:48 | 46.81885 | 141.42217 | 18934 ft | 405 kts | 88° |
| 2026-04-21 09:48 | 46.82142 | 141.46295 | 18293 ft | 402 kts | 88° |
| 2026-04-21 09:49 | 46.82398 | 141.50353 | 17656 ft | 400 kts | 88° |
| 2026-04-21 09:49 | 46.82651 | 141.54384 | 16999 ft | 397 kts | 88° |
| 2026-04-21 09:49 | 46.82897 | 141.58374 | 16419 ft | 394 kts | 88° |
| 2026-04-21 09:49 | 46.83137 | 141.62350 | 15861 ft | 393 kts | 88° |
| 2026-04-21 09:50 | 46.83370 | 141.66322 | 15308 ft | 392 kts | 88° |
| 2026-04-21 09:50 | 46.83445 | 141.67606 | 15135 ft | 392 kts | 88° |
| 2026-04-21 09:50 | 46.84338 | 141.78158 | 13716 ft | 393 kts | 76° |
| 2026-04-21 09:51 | 46.85303 | 141.81902 | 13265 ft | 402 kts | 64° |
| 2026-04-21 09:51 | 46.86730 | 141.85438 | 13060 ft | 414 kts | 54° |
| 2026-04-21 09:51 | 46.88408 | 141.88863 | 12796 ft | 416 kts | 54° |
| 2026-04-21 09:51 | 46.90091 | 141.92296 | 12539 ft | 415 kts | 54° |
| 2026-04-21 09:52 | 46.91772 | 141.95726 | 12259 ft | 414 kts | 54° |
| 2026-04-21 09:52 | 46.93442 | 141.99143 | 11998 ft | 412 kts | 54° |
| 2026-04-21 09:52 | 46.95104 | 142.02550 | 11736 ft | 411 kts | 54° |
| 2026-04-21 09:52 | 46.96763 | 142.05956 | 11461 ft | 410 kts | 54° |
| 2026-04-21 09:53 | 46.98412 | 142.09347 | 11191 ft | 409 kts | 54° |
| 2026-04-21 09:53 | 47.00055 | 142.12741 | 10954 ft | 408 kts | 54° |
| 2026-04-21 09:53 | 47.01690 | 142.16127 | 10684 ft | 402 kts | 53° |
| 2026-04-21 09:53 | 47.03270 | 142.19396 | 10533 ft | 385 kts | 53° |
| 2026-04-21 09:54 | 47.04788 | 142.22528 | 10403 ft | 369 kts | 53° |
| 2026-04-21 09:54 | 47.06243 | 142.25534 | 10277 ft | 355 kts | 53° |
| 2026-04-21 09:54 | 47.07197 | 142.27502 | 10191 ft | 346 kts | 53° |
| 2026-04-21 09:54 | 47.08567 | 142.30332 | 10062 ft | 335 kts | 53° |
| 2026-04-21 09:55 | 47.09890 | 142.33070 | 9901 ft | 322 kts | 53° |
| 2026-04-21 09:55 | 47.11152 | 142.35681 | 9600 ft | 315 kts | 52° |
| 2026-04-21 09:55 | 47.12418 | 142.38306 | 9477 ft | 316 kts | 52° |
| 2026-04-21 09:55 | 47.13684 | 142.40934 | 9298 ft | 315 kts | 52° |
| 2026-04-21 09:56 | 47.14946 | 142.43559 | 9107 ft | 314 kts | 52° |
| 2026-04-21 09:56 | 47.16201 | 142.46177 | 8925 ft | 313 kts | 53° |
| 2026-04-21 09:56 | 47.17458 | 142.48802 | 8748 ft | 313 kts | 53° |
| 2026-04-21 09:56 | 47.18709 | 142.51418 | 8568 ft | 312 kts | 53° |
| 2026-04-21 09:57 | 47.19956 | 142.54027 | 8392 ft | 311 kts | 52° |
| 2026-04-21 09:57 | 47.21199 | 142.56623 | 8204 ft | 310 kts | 53° |
| 2026-04-21 09:57 | 47.22443 | 142.59219 | 8029 ft | 310 kts | 52° |
| 2026-04-21 09:57 | 47.23478 | 142.61973 | 7950 ft | 309 kts | 73° |
| 2026-04-21 09:58 | 47.23752 | 142.65089 | 7971 ft | 308 kts | 97° |
| 2026-04-21 09:58 | 47.23195 | 142.68083 | 7892 ft | 301 kts | 121° |
| 2026-04-21 09:58 | 47.21970 | 142.70474 | 7646 ft | 288 kts | 145° |
| 2026-04-21 09:58 | 47.20309 | 142.71968 | 7370 ft | 275 kts | 167° |
| 2026-04-21 09:59 | 47.18485 | 142.72489 | 6880 ft | 263 kts | 186° |
| 2026-04-21 09:59 | 47.16672 | 142.72460 | 6138 ft | 261 kts | 189° |
| 2026-04-21 09:59 | 47.14865 | 142.72390 | 5417 ft | 259 kts | 189° |
| 2026-04-21 09:59 | 47.13081 | 142.72343 | 4815 ft | 253 kts | 188° |
| 2026-04-21 10:00 | 47.11333 | 142.72302 | 4432 ft | 250 kts | 189° |
| 2026-04-21 10:00 | 47.09603 | 142.72260 | 4063 ft | 243 kts | 189° |
| 2026-04-21 10:00 | 47.07965 | 142.72225 | 3734 ft | 228 kts | 189° |
| 2026-04-21 10:00 | 47.06424 | 142.72188 | 3426 ft | 216 kts | 189° |
| 2026-04-21 10:01 | 47.04960 | 142.72151 | 3127 ft | 206 kts | 190° |
| 2026-04-21 10:01 | 47.03558 | 142.72116 | 2852 ft | 197 kts | 190° |
| 2026-04-21 10:01 | 47.02211 | 142.72082 | 2580 ft | 190 kts | 190° |
| 2026-04-21 10:01 | 47.00918 | 142.72050 | 2322 ft | 183 kts | 190° |
| 2026-04-21 10:02 | 46.98525 | 142.71994 | 1866 ft | 158 kts | 189° |
| 2026-04-21 10:02 | 46.97460 | 142.71967 | 1628 ft | 145 kts | 189° |
| 2026-04-21 10:02 | 46.96491 | 142.71943 | 1405 ft | 136 kts | 188° |
| 2026-04-21 10:03 | 46.95559 | 142.71918 | 1203 ft | 133 kts | 187° |
| 2026-04-21 10:03 | 46.94640 | 142.71894 | 1009 ft | 132 kts | 186° |
| 2026-04-21 10:03 | 46.93720 | 142.71870 | 817 ft | 133 kts | 184° |
| 2026-04-21 10:03 | 46.92791 | 142.71851 | 617 ft | 134 kts | 183° |
| 2026-04-21 10:04 | 46.91868 | 142.71828 | 478 ft | 135 kts | 184° |
| 2026-04-21 10:04 | 46.90931 | 142.71807 | 286 ft | 135 kts | 182° |
| 2026-04-21 10:04 | 46.89996 | 142.71779 | 101 ft | 134 kts | 182° |
| 2026-04-21 10:04 | 46.89122 | 142.71744 | 233 ft | 131 kts | 182° |
| 2026-04-21 10:05 | 46.88095 | 142.71735 | 815 ft | 161 kts | 183° |
| 2026-04-21 10:05 | 46.86970 | 142.71770 | 1452 ft | 153 kts | 184° |
| 2026-04-21 10:05 | 46.85956 | 142.71865 | 1873 ft | 140 kts | 193° |
| 2026-04-21 10:05 | 46.85085 | 142.71289 | 2285 ft | 146 kts | 230° |
| 2026-04-21 10:06 | 46.84627 | 142.69942 | 2790 ft | 153 kts | 259° |
| 2026-04-21 10:06 | 46.84795 | 142.68390 | 3440 ft | 164 kts | 292° |
| 2026-04-21 10:06 | 46.85702 | 142.67246 | 3996 ft | 191 kts | 324° |
| 2026-04-21 10:06 | 46.86979 | 142.66438 | 4438 ft | 210 kts | 329° |
| 2026-04-21 10:07 | 46.88419 | 142.65607 | 4876 ft | 235 kts | 330° |
| 2026-04-21 10:07 | 46.90033 | 142.64693 | 5015 ft | 257 kts | 331° |
| 2026-04-21 10:07 | 46.91695 | 142.63767 | 5026 ft | 260 kts | 332° |
| 2026-04-21 10:07 | 46.93400 | 142.62855 | 5022 ft | 264 kts | 337° |
| 2026-04-21 10:08 | 46.95270 | 142.62642 | 5028 ft | 274 kts | 354° |
| 2026-04-21 10:08 | 46.97178 | 142.62693 | 5027 ft | 274 kts | 354° |
| 2026-04-21 10:08 | 46.99086 | 142.62754 | 5021 ft | 274 kts | 354° |
| 2026-04-21 10:08 | 47.00995 | 142.62813 | 5010 ft | 274 kts | 354° |
| 2026-04-21 10:09 | 47.02904 | 142.62868 | 5017 ft | 274 kts | 354° |
| 2026-04-21 10:09 | 47.04815 | 142.62921 | 5015 ft | 275 kts | 354° |
| 2026-04-21 10:09 | 47.06738 | 142.62967 | 4462 ft | 278 kts | 354° |
| 2026-04-21 10:09 | 47.08632 | 142.63214 | 4055 ft | 270 kts | 9° |
| 2026-04-21 10:10 | 47.10280 | 142.64360 | 3845 ft | 259 kts | 32° |
| 2026-04-21 10:10 | 47.11458 | 142.66362 | 3210 ft | 265 kts | 68° |
| 2026-04-21 10:10 | 47.11670 | 142.68933 | 2991 ft | 245 kts | 105° |
| 2026-04-21 10:10 | 47.11043 | 142.71030 | 3004 ft | 205 kts | 143° |
| 2026-04-21 10:11 | 47.09990 | 142.72046 | 3024 ft | 165 kts | 172° |
| 2026-04-21 10:11 | 47.08874 | 142.72240 | 3027 ft | 159 kts | 191° |
| 2026-04-21 10:11 | 47.07762 | 142.72212 | 3025 ft | 160 kts | 190° |
| 2026-04-21 10:11 | 47.06645 | 142.72184 | 3015 ft | 161 kts | 190° |
| 2026-04-21 10:12 | 47.05529 | 142.72159 | 3018 ft | 153 kts | 190° |
| 2026-04-21 10:12 | 47.04535 | 142.72141 | 2909 ft | 136 kts | 191° |
| 2026-04-21 10:12 | 47.03610 | 142.72117 | 2769 ft | 131 kts | 192° |
| 2026-04-21 10:12 | 47.02712 | 142.72093 | 2604 ft | 128 kts | 191° |
| 2026-04-21 10:13 | 47.01825 | 142.72070 | 2431 ft | 127 kts | 191° |
| 2026-04-21 10:13 | 47.00940 | 142.72047 | 2262 ft | 127 kts | 190° |
| 2026-04-21 10:13 | 47.00053 | 142.72025 | 2081 ft | 127 kts | 189° |
| 2026-04-21 10:13 | 46.99172 | 142.72003 | 1901 ft | 126 kts | 189° |
| 2026-04-21 10:14 | 46.98292 | 142.71982 | 1728 ft | 126 kts | 188° |
| 2026-04-21 10:14 | 46.97412 | 142.71960 | 1546 ft | 127 kts | 188° |
| 2026-04-21 10:14 | 46.96530 | 142.71938 | 1377 ft | 128 kts | 188° |
| 2026-04-21 10:14 | 46.95637 | 142.71916 | 1196 ft | 127 kts | 187° |
| 2026-04-21 10:15 | 46.94743 | 142.71894 | 1021 ft | 129 kts | 185° |
| 2026-04-21 10:15 | 46.93846 | 142.71873 | 847 ft | 129 kts | 184° |
| 2026-04-21 10:15 | 46.92957 | 142.71855 | 661 ft | 127 kts | 183° |
| 2026-04-21 10:15 | 46.92067 | 142.71835 | 491 ft | 127 kts | 183° |
| 2026-04-21 10:16 | 46.91178 | 142.71810 | 312 ft | 130 kts | 182° |
| 2026-04-21 10:16 | 46.90289 | 142.71786 | 148 ft | 130 kts | 181° |
| 2026-04-21 10:16 | 46.89418 | 142.71761 | 87 ft | 112 kts | 180° |
| 2026-04-21 10:16 | 46.88818 | 142.71749 | 67 ft | 61 kts | 181° |
| 2026-04-21 10:17 | 46.88694 | 142.71793 | 81 ft | 4 kts | 71° |
| 2026-04-21 10:17 | 46.88696 | 142.71869 | 80 ft | 12 kts | 92° |
| 2026-04-21 10:17 | 46.88695 | 142.71965 | 80 ft | 0 kts | 90° |
| 2026-04-21 10:18 | 46.88695 | 142.71978 | 79 ft | 7 kts | 90° |
| 2026-04-21 10:18 | 46.88717 | 142.72092 | 82 ft | 12 kts | 37° |
| 2026-04-21 10:18 | 46.88786 | 142.72102 | 83 ft | 9 kts | 0° |
| 2026-04-21 10:18 | 46.88827 | 142.72103 | 86 ft | 2 kts | 1° |
| 2026-04-21 10:19 | 46.88843 | 142.72110 | 85 ft | 4 kts | 37° |
| 2026-04-21 10:19 | 46.88845 | 142.72146 | 84 ft | 8 kts | 86° |
| 2026-04-21 10:19 | 46.88843 | 142.72215 | 83 ft | 4 kts | 92° |
| 2026-04-21 10:19 | 46.88843 | 142.72227 | 82 ft | 1 kts | 92° |
| 2026-04-21 10:20 | 46.88843 | 142.72234 | 80 ft | 0 kts | 92° |